Terminal Aerodrome Forecast
Issued by NWS Pendleton, OR

Home | Current Version | Previous Version | Text Only | Print | Product List | Glossary On
Versions: 1 2 3 4 5 6 7 8 9 10 11 12 13 14 15
664
FTUS46 KPDT 192320
TAFPDT
TAF
KPDT 192320Z 2000/2024 32006KT P6SM FEW250
     FM200600 16007KT P6SM FEW070
     FM201300 14004KT P6SM SKC
     FM201900 32008KT P6SM SCT250=

USA.gov is the U.S. government's official web portal to all federal, state and local government web resources and services.